Time;durP1;ratioP1;P1;durP2;ratioP2;P2;SDS_P1;SDS_P2;PMS_P1;PMS_P2;Temp;Humidity;BMP_temperature;BMP_pressure;BME280_temperature;BME280_humidity;BME280_pressure;Samples;Min_cycle;Max_cycle;Signal;HPM_P1;HPM_P2
2021/06/09 00:01:26;;;;;;;16.23;14.50;;;16.20;99.90;;;;;;5093069;28;20166;-64
2021/06/09 00:03:51;;;;;;;17.17;15.37;;;16.20;99.90;;;;;;5093444;28;20184;-65
2021/06/09 00:06:17;;;;;;;17.13;15.17;;;16.10;99.90;;;;;;5093407;28;20173;-64
2021/06/09 00:08:42;;;;;;;18.23;16.37;;;16.20;99.90;;;;;;5093395;28;20186;-64
2021/06/09 00:11:09;;;;;;;17.93;16.20;;;16.10;99.90;;;;;;5092984;28;20170;-65
2021/06/09 00:13:35;;;;;;;17.83;15.93;;;16.10;99.90;;;;;;5092994;28;20721;-64
2021/06/09 00:16:05;;;;;;;16.97;15.27;;;16.10;99.90;;;;;;5093169;28;20194;-64
2021/06/09 00:18:30;;;;;;;19.50;17.20;;;16.10;99.90;;;;;;5093031;28;20161;-64
2021/06/09 00:20:56;;;;;;;17.07;15.37;;;16.00;99.90;;;;;;5072614;28;20170;-64
2021/06/09 00:23:26;;;;;;;18.27;16.37;;;15.90;99.90;;;;;;5072699;28;20276;-65
2021/06/09 00:25:53;;;;;;;17.20;15.60;;;15.90;99.90;;;;;;5092297;28;20177;-64
2021/06/09 00:28:19;;;;;;;17.67;15.83;;;15.80;99.90;;;;;;5092865;28;20197;-64
2021/06/09 00:30:46;;;;;;;16.73;15.17;;;15.80;99.90;;;;;;5092487;28;20193;-64
2021/06/09 00:33:12;;;;;;;20.37;18.20;;;15.80;99.90;;;;;;5092745;28;20219;-64
2021/06/09 00:35:37;;;;;;;19.07;17.07;;;15.80;99.90;;;;;;5092626;28;20178;-64
2021/06/09 00:38:04;;;;;;;19.00;16.80;;;15.80;99.90;;;;;;5092758;28;20262;-64
2021/06/09 00:40:31;;;;;;;19.57;17.57;;;15.70;99.90;;;;;;5092268;28;20185;-64
2021/06/09 00:43:10;;;;;;;19.00;16.40;;;15.50;99.90;;;;;;5092027;28;20172;-64
2021/06/09 00:45:41;;;;;;;18.20;16.40;;;15.40;99.90;;;;;;5092442;28;20517;-64
2021/06/09 00:48:07;;;;;;;19.50;17.23;;;15.40;99.90;;;;;;5092734;28;20232;-64
2021/06/09 00:50:33;;;;;;;20.90;18.57;;;15.40;99.90;;;;;;5092069;28;20188;-65
2021/06/09 00:55:44;;;;;;;21.07;18.80;;;15.50;99.90;;;;;;5092111;28;20226;-65
2021/06/09 00:58:11;;;;;;;21.80;19.50;;;15.60;99.90;;;;;;5092500;28;20605;-64
2021/06/09 01:00:37;;;;;;;25.67;18.57;;;15.40;99.90;;;;;;5091931;28;20184;-65
2021/06/09 01:03:02;;;;;;;21.10;18.87;;;15.40;99.90;;;;;;5092299;28;20611;-65
2021/06/09 01:05:28;;;;;;;22.60;18.87;;;15.50;99.90;;;;;;5091996;28;20174;-65
2021/06/09 01:07:54;;;;;;;20.90;17.63;;;15.50;99.90;;;;;;5092057;28;20246;-64
2021/06/09 01:10:19;;;;;;;21.40;18.90;;;15.40;99.90;;;;;;5091958;28;20174;-64
2021/06/09 01:12:46;;;;;;;20.93;18.20;;;15.50;99.90;;;;;;5091843;28;20201;-64
2021/06/09 01:15:12;;;;;;;24.10;19.03;;;15.50;99.90;;;;;;5074102;28;20177;-65
2021/06/09 01:17:38;;;;;;;23.70;18.33;;;15.40;99.90;;;;;;5091869;28;20601;-64
2021/06/09 01:20:05;;;;;;;22.20;19.27;;;15.20;99.90;;;;;;5091857;28;20260;-64
2021/06/09 01:22:31;;;;;;;22.10;19.63;;;15.10;99.90;;;;;;5091743;28;20213;-64
2021/06/09 01:24:56;;;;;;;22.47;20.07;;;15.00;99.90;;;;;;5091005;28;20584;-64
2021/06/09 01:27:23;;;;;;;22.27;19.30;;;15.00;99.90;;;;;;5091245;28;20197;-64
2021/06/09 01:29:49;;;;;;;20.40;18.43;;;14.90;99.90;;;;;;5091470;28;20223;-64
2021/06/09 01:32:16;;;;;;;21.13;18.83;;;14.80;99.90;;;;;;5091848;28;20197;-64
2021/06/09 01:34:41;;;;;;;21.83;19.50;;;14.80;99.90;;;;;;5091712;28;20258;-64
2021/06/09 01:37:07;;;;;;;21.60;18.83;;;14.80;99.90;;;;;;5091037;28;20255;-64
2021/06/09 01:39:33;;;;;;;23.20;20.70;;;14.80;99.90;;;;;;5091796;28;20193;-64
2021/06/09 01:41:58;;;;;;;24.30;20.60;;;14.70;99.90;;;;;;5091357;28;20174;-64
2021/06/09 01:44:24;;;;;;;22.23;19.93;;;14.70;99.90;;;;;;5091439;28;20661;-65
2021/06/09 01:46:52;;;;;;;22.70;20.30;;;14.70;99.90;;;;;;5091470;28;20201;-64
2021/06/09 01:49:18;;;;;;;21.27;19.10;;;14.70;99.90;;;;;;5091532;28;20173;-64
2021/06/09 01:51:44;;;;;;;23.10;19.33;;;14.70;99.90;;;;;;5091276;28;20189;-64
2021/06/09 01:54:10;;;;;;;25.00;21.13;;;14.70;99.90;;;;;;5091497;28;20228;-64
2021/06/09 01:56:37;;;;;;;24.00;20.10;;;14.60;99.90;;;;;;5091506;28;20283;-64
2021/06/09 01:59:13;;;;;;;24.27;21.27;;;14.70;99.90;;;;;;5091246;28;20649;-64
2021/06/09 02:01:39;;;;;;;26.47;21.10;;;14.70;99.90;;;;;;5091340;28;20261;-64
2021/06/09 02:04:08;;;;;;;23.00;20.13;;;14.60;99.90;;;;;;5091383;28;20657;-64
2021/06/09 02:06:40;;;;;;;24.77;20.90;;;14.70;99.90;;;;;;5091580;28;20209;-69
2021/06/09 02:09:06;;;;;;;23.90;20.93;;;14.60;99.90;;;;;;5096966;28;20189;-69
2021/06/09 02:11:32;;;;;;;25.70;21.93;;;14.60;99.90;;;;;;5096978;28;20636;-68
2021/06/09 02:13:59;;;;;;;27.40;22.27;;;14.60;99.90;;;;;;5096476;28;20229;-67
2021/06/09 02:16:32;;;;;;;28.07;22.40;;;14.60;99.90;;;;;;5097199;28;20267;-68
2021/06/09 02:18:58;;;;;;;24.73;21.60;;;14.70;99.90;;;;;;5096706;28;20190;-64
2021/06/09 02:21:23;;;;;;;24.70;21.43;;;14.80;99.90;;;;;;5096566;28;20656;-69
2021/06/09 02:23:49;;;;;;;25.20;21.90;;;14.80;99.90;;;;;;5096710;28;20230;-68
2021/06/09 02:26:15;;;;;;;22.50;19.10;;;14.90;99.90;;;;;;5097451;28;20216;-70
2021/06/09 02:28:42;;;;;;;19.97;17.87;;;14.90;99.90;;;;;;5097959;28;20202;-69
2021/06/09 02:31:08;;;;;;;20.00;17.90;;;15.00;99.90;;;;;;5097298;28;20178;-71
2021/06/09 02:33:35;;;;;;;21.93;18.20;;;14.90;99.90;;;;;;5097771;28;20213;-70
2021/06/09 02:36:00;;;;;;;19.57;17.57;;;14.90;99.90;;;;;;5097242;28;20177;-69
2021/06/09 02:38:27;;;;;;;19.17;17.27;;;14.90;99.90;;;;;;5096631;28;20650;-70
2021/06/09 02:40:55;;;;;;;22.43;17.63;;;14.90;99.90;;;;;;5096719;28;20173;-68
2021/06/09 02:43:21;;;;;;;19.10;17.10;;;14.90;99.90;;;;;;5077706;28;20185;-68
2021/06/09 02:45:53;;;;;;;19.30;16.47;;;14.80;99.90;;;;;;5097240;28;20178;-67
2021/06/09 02:48:24;;;;;;;19.67;17.60;;;14.70;99.90;;;;;;5097164;28;20205;-70
2021/06/09 02:50:50;;;;;;;21.90;18.83;;;14.60;99.90;;;;;;5096864;28;20186;-70
2021/06/09 02:53:23;;;;;;;20.80;18.70;;;14.70;99.90;;;;;;5096709;28;20205;-71
2021/06/09 02:56:10;;;;;;;21.53;19.23;;;14.60;99.90;;;;;;5096761;28;20249;-69
2021/06/09 02:58:53;;;;;;;20.23;18.00;;;14.60;99.90;;;;;;5076906;28;20260;-66
2021/06/09 03:01:25;;;;;;;20.80;18.67;;;14.60;99.90;;;;;;5094732;28;20176;-70
2021/06/09 03:04:12;;;;;;;23.17;19.40;;;14.50;99.90;;;;;;5096530;28;20252;-68
2021/06/09 03:06:41;;;;;;;22.03;18.83;;;14.50;99.90;;;;;;5075768;28;20197;-68
2021/06/09 03:09:16;;;;;;;23.87;19.20;;;14.50;99.90;;;;;;5076423;28;20182;-67
2021/06/09 03:11:55;;;;;;;22.33;19.93;;;14.40;99.90;;;;;;5075571;28;20182;-68
2021/06/09 03:17:30;;;;;;;23.50;20.10;;;14.20;99.90;;;;;;5096176;28;20270;-71
2021/06/09 03:20:33;;;;;;;23.93;19.93;;;14.10;99.90;;;;;;5095986;28;20280;-67
2021/06/09 03:23:11;;;;;;;22.30;19.90;;;14.20;99.90;;;;;;5095963;28;20188;-69
2021/06/09 03:25:49;;;;;;;25.83;20.83;;;14.20;99.90;;;;;;5095806;28;20189;-67
2021/06/09 03:28:21;;;;;;;24.63;22.03;;;14.30;99.90;;;;;;5095805;28;20193;-68
2021/06/09 03:30:55;;;;;;;25.87;20.80;;;14.30;99.90;;;;;;5095532;28;20173;-72
2021/06/09 03:33:23;;;;;;;26.43;22.10;;;14.30;99.90;;;;;;5095558;28;20213;-67
2021/06/09 03:36:19;;;;;;;26.10;22.10;;;14.30;99.90;;;;;;5096090;28;20173;-67
2021/06/09 03:38:50;;;;;;;25.17;22.33;;;14.40;99.90;;;;;;5058045;28;20666;-69
2021/06/09 03:41:18;;;;;;;23.80;20.70;;;14.40;99.90;;;;;;5095552;28;20173;-69
2021/06/09 03:43:49;;;;;;;32.67;23.47;;;14.30;99.90;;;;;;5094032;28;20181;-68
2021/06/09 03:46:16;;;;;;;33.83;24.60;;;14.30;99.90;;;;;;5095708;28;20176;-68
2021/06/09 03:48:44;;;;;;;29.30;24.57;;;14.30;99.90;;;;;;5095385;28;20638;-68
2021/06/09 03:51:10;;;;;;;34.07;25.13;;;14.20;99.90;;;;;;5095505;28;20550;-68
2021/06/09 03:53:39;;;;;;;32.80;25.43;;;14.10;99.90;;;;;;5095349;28;20218;-66
2021/06/09 03:56:06;;;;;;;34.03;26.30;;;14.20;99.90;;;;;;5095715;28;20236;-68
2021/06/09 03:58:34;;;;;;;32.63;24.17;;;14.30;99.90;;;;;;5094409;28;20186;-63
2021/06/09 04:01:01;;;;;;;32.23;25.63;;;14.30;99.90;;;;;;5093240;28;20165;-63
2021/06/09 04:03:27;;;;;;;34.00;25.67;;;14.40;99.90;;;;;;5093358;28;20668;-63
2021/06/09 04:05:55;;;;;;;34.93;26.40;;;14.60;99.90;;;;;;5093539;28;20182;-63
2021/06/09 04:08:21;;;;;;;35.93;27.33;;;14.60;99.90;;;;;;5093068;28;20205;-63
2021/06/09 04:10:47;;;;;;;36.87;28.53;;;14.70;99.90;;;;;;5093154;28;20181;-63
2021/06/09 04:13:15;;;;;;;39.53;27.73;;;14.70;99.90;;;;;;5093080;28;20204;-63
2021/06/09 04:15:41;;;;;;;32.27;25.97;;;14.60;99.90;;;;;;5093361;28;20182;-63
2021/06/09 04:18:08;;;;;;;36.20;27.20;;;14.60;99.90;;;;;;5092998;28;20206;-63
2021/06/09 04:20:35;;;;;;;39.27;28.13;;;14.70;99.90;;;;;;5074583;28;20189;-63
2021/06/09 04:23:01;;;;;;;39.80;30.00;;;15.00;99.90;;;;;;5093065;28;20193;-63
2021/06/09 04:25:27;;;;;;;40.13;31.40;;;15.30;99.90;;;;;;5092907;28;20260;-64
2021/06/09 04:27:53;;;;;;;39.60;30.63;;;15.40;99.90;;;;;;5092773;28;20288;-63
2021/06/09 04:30:22;;;;;;;45.73;32.50;;;15.70;99.90;;;;;;5092049;28;20191;-63
2021/06/09 04:32:50;;;;;;;38.70;30.00;;;15.90;99.90;;;;;;5092738;28;20292;-64
2021/06/09 04:35:16;;;;;;;42.13;30.27;;;16.30;99.90;;;;;;5092225;28;20645;-63
2021/06/09 04:37:42;;;;;;;31.27;24.20;;;16.50;99.90;;;;;;5155471;22;20293;-63
2021/06/09 04:40:25;;;;;;;23.33;20.93;;;16.70;99.90;;;;;;5112976;28;20156;-64
2021/06/09 04:42:53;;;;;;;22.63;20.13;;;16.90;99.90;;;;;;5093483;28;20235;-64
2021/06/09 04:45:21;;;;;;;20.73;18.53;;;17.10;99.90;;;;;;5092868;28;20670;-63
2021/06/09 04:47:47;;;;;;;20.87;18.67;;;17.20;99.90;;;;;;5111718;28;20197;-63
2021/06/09 04:50:17;;;;;;;19.67;17.53;;;17.30;99.90;;;;;;5112910;28;20617;-63
2021/06/09 04:52:42;;;;;;;20.13;17.97;;;17.30;99.90;;;;;;5094664;28;20206;-63
2021/06/09 04:55:08;;;;;;;21.10;18.97;;;17.50;99.90;;;;;;5092652;28;20436;-63
2021/06/09 04:57:35;;;;;;;21.17;19.10;;;17.60;99.90;;;;;;5108417;28;20200;-64
2021/06/09 05:00:04;;;;;;;22.03;19.63;;;17.80;99.90;;;;;;5105866;28;20173;-64
2021/06/09 05:02:30;;;;;;;21.07;18.20;;;18.00;99.90;;;;;;5101313;28;20185;-64
2021/06/09 05:04:55;;;;;;;20.10;18.03;;;18.30;99.90;;;;;;5092471;28;20222;-63
2021/06/09 05:07:21;;;;;;;21.67;19.47;;;18.60;99.90;;;;;;5101125;28;20664;-64
2021/06/09 05:09:46;;;;;;;19.80;17.80;;;18.80;99.90;;;;;;5112577;28;20179;-64
2021/06/09 05:12:22;;;;;;;23.93;20.03;;;18.80;99.90;;;;;;5092632;28;20558;-63
2021/06/09 05:15:14;;;;;;;23.97;21.47;;;18.60;99.90;;;;;;5092439;28;20540;-63
2021/06/09 05:17:48;;;;;;;22.57;19.63;;;18.50;99.90;;;;;;5070339;28;20253;-64
2021/06/09 05:20:24;;;;;;;24.53;21.67;;;18.50;99.90;;;;;;5093732;28;20177;-64
2021/06/09 05:23:00;;;;;;;25.80;23.07;;;18.60;99.90;;;;;;5112436;28;20164;-64
2021/06/09 05:25:27;;;;;;;27.10;23.03;;;18.90;99.90;;;;;;5108708;28;20173;-64
2021/06/09 05:27:54;;;;;;;24.87;22.37;;;19.10;99.90;;;;;;5092004;28;20204;-64
2021/06/09 05:30:23;;;;;;;24.73;22.23;;;19.40;99.90;;;;;;5093264;28;20557;-64
2021/06/09 05:32:51;;;;;;;26.43;23.57;;;19.70;99.90;;;;;;5112303;28;20204;-64
2021/06/09 05:35:17;;;;;;;25.80;23.13;;;20.10;99.90;;;;;;5110954;28;20161;-64
2021/06/09 05:37:45;;;;;;;25.08;22.27;;;20.50;99.90;;;;;;5109888;28;20232;-64
2021/06/09 05:40:11;;;;;;;23.00;20.80;;;20.70;99.90;;;;;;5104110;28;20181;-64
2021/06/09 05:42:38;;;;;;;25.13;22.42;;;21.00;99.90;;;;;;5089783;28;20192;-64
2021/06/09 05:45:05;;;;;;;23.10;20.58;;;21.20;99.90;;;;;;5093006;28;20170;-64
2021/06/09 05:47:31;;;;;;;25.55;21.95;;;21.40;99.90;;;;;;5071640;28;20197;-64
2021/06/09 05:50:15;;;;;;;25.00;20.90;;;21.70;99.90;;;;;;5091671;28;20242;-64
2021/06/09 05:52:41;;;;;;;27.27;22.52;;;22.10;99.90;;;;;;5091381;28;20229;-64
2021/06/09 05:55:17;;;;;;;28.60;25.55;;;22.20;99.90;;;;;;5096765;28;20181;-64
2021/06/09 05:57:44;;;;;;;28.15;23.90;;;22.50;99.90;;;;;;5111817;28;20220;-64
2021/06/09 06:00:10;;;;;;;27.30;23.08;;;22.60;99.90;;;;;;5107432;28;20186;-64
2021/06/09 06:02:38;;;;;;;27.50;23.63;;;22.80;99.90;;;;;;5103654;28;20185;-64
2021/06/09 06:05:08;;;;;;;25.90;22.85;;;23.10;99.90;;;;;;5091686;28;20182;-64
2021/06/09 06:07:35;;;;;;;26.50;22.15;;;23.30;99.90;;;;;;5097506;28;20214;-64
2021/06/09 06:10:03;;;;;;;22.75;20.25;;;23.60;99.90;;;;;;5100948;28;20174;-64
2021/06/09 06:12:29;;;;;;;22.77;20.38;;;23.90;99.90;;;;;;5096071;28;20608;-64
2021/06/09 06:14:55;;;;;;;22.60;20.23;;;24.10;99.90;;;;;;5111981;28;20503;-64
2021/06/09 06:17:21;;;;;;;26.30;19.60;;;24.30;99.90;;;;;;5089464;28;20189;-65
2021/06/09 06:19:51;;;;;;;22.00;19.55;;;24.50;99.90;;;;;;5091061;28;20166;-65
2021/06/09 06:22:18;;;;;;;23.67;21.17;;;24.60;99.90;;;;;;5092902;28;20170;-64
2021/06/09 06:24:49;;;;;;;22.25;19.90;;;24.60;99.90;;;;;;5111780;28;20626;-64
2021/06/09 06:27:16;;;;;;;26.10;22.30;;;24.80;99.90;;;;;;5093049;28;20205;-64
2021/06/09 06:29:44;;;;;;;23.13;20.65;;;24.90;99.90;;;;;;5091181;28;20169;-64
2021/06/09 06:32:13;;;;;;;21.52;19.27;;;25.20;99.90;;;;;;5108064;28;20646;-64
2021/06/09 06:34:58;;;;;;;25.83;21.27;;;25.40;99.90;;;;;;5111732;28;20176;-65
2021/06/09 06:37:25;;;;;;;24.95;20.95;;;25.70;99.90;;;;;;5109288;28;20257;-66
2021/06/09 06:39:51;;;;;;;23.35;20.85;;;25.80;99.90;;;;;;5106364;28;20169;-64
2021/06/09 06:42:18;;;;;;;23.25;20.75;;;25.90;99.90;;;;;;5090157;28;20170;-66
2021/06/09 06:44:45;;;;;;;24.63;19.77;;;26.00;99.90;;;;;;5094233;28;20356;-65
2021/06/09 06:47:11;;;;;;;21.70;19.38;;;26.10;99.90;;;;;;5111630;28;20193;-65
2021/06/09 06:49:38;;;;;;;21.60;19.42;;;26.20;99.90;;;;;;5109327;28;20674;-63
2021/06/09 06:52:04;;;;;;;21.83;19.52;;;26.50;99.90;;;;;;5090865;28;20177;-63
2021/06/09 06:54:30;;;;;;;23.83;19.95;;;26.80;99.90;;;;;;5094386;28;20205;-63
2021/06/09 06:56:57;;;;;;;22.35;19.90;;;27.10;99.90;;;;;;5103713;28;20184;-64
2021/06/09 06:59:24;;;;;;;24.17;21.60;;;27.20;99.90;;;;;;5114838;28;20195;-64
2021/06/09 07:01:50;;;;;;;23.50;20.73;;;27.60;99.90;;;;;;5114924;28;20229;-63
2021/06/09 07:04:18;;;;;;;23.33;20.08;;;28.00;99.90;;;;;;5113878;28;20180;-63
2021/06/09 07:06:44;;;;;;;23.88;20.23;;;28.40;99.90;;;;;;5114866;28;20188;-63
2021/06/09 07:09:11;;;;;;;22.48;19.40;;;28.80;99.90;;;;;;5079382;28;20182;-64
2021/06/09 07:11:38;;;;;;;24.50;20.05;;;28.80;99.90;;;;;;5096077;28;20177;-63
2021/06/09 07:14:06;;;;;;;25.90;21.45;;;29.20;99.90;;;;;;5103235;28;20737;-66
2021/06/09 07:16:33;;;;;;;28.38;21.98;;;29.20;99.90;;;;;;5114792;28;20172;-64
2021/06/09 07:19:00;;;;;;;26.35;22.45;;;29.10;99.90;;;;;;5114050;28;20180;-63
2021/06/09 07:21:26;;;;;;;26.10;23.40;;;28.80;99.90;;;;;;5095528;28;20180;-63
2021/06/09 07:23:53;;;;;;;26.42;22.00;;;28.80;99.90;;;;;;5113835;28;20180;-66
2021/06/09 07:26:20;;;;;;;24.65;22.23;;;29.20;99.90;;;;;;5114503;28;20179;-64
2021/06/09 07:28:48;;;;;;;23.00;20.60;;;29.60;99.90;;;;;;5096459;28;20181;-64
2021/06/09 07:31:16;;;;;;;25.58;21.65;;;29.80;99.90;;;;;;5094015;28;20169;-64
2021/06/09 07:33:43;;;;;;;24.58;22.15;;;29.90;99.90;;;;;;5110672;28;20201;-63
2021/06/09 07:36:10;;;;;;;25.98;22.25;;;30.10;99.90;;;;;;5114714;28;20175;-63
2021/06/09 07:38:43;;;;;;;22.77;20.48;;;30.50;99.90;;;;;;5114179;28;20376;-63
2021/06/09 07:41:11;;;;;;;23.98;21.52;;;30.70;99.90;;;;;;5114423;28;20171;-63
2021/06/09 07:43:41;;;;;;;21.38;19.20;;;30.80;99.90;;;;;;5113131;28;20261;-63
2021/06/09 07:46:15;;;;;;;19.13;17.23;;;31.10;99.90;;;;;;5114572;28;20225;-63
2021/06/09 07:48:45;;;;;;;18.30;16.40;;;31.40;99.90;;;;;;5099798;28;20204;-63
2021/06/09 07:51:12;;;;;;;20.30;18.30;;;31.50;99.90;;;;;;5075625;28;20208;-63
2021/06/09 07:53:40;;;;;;;16.85;15.15;;;31.80;99.90;;;;;;5105165;28;20288;-63
2021/06/09 07:56:08;;;;;;;16.77;15.07;;;31.40;99.90;;;;;;5114182;28;20176;-64
2021/06/09 07:58:34;;;;;;;17.08;15.38;;;31.00;99.90;;;;;;5083567;28;20193;-63
2021/06/09 08:01:01;;;;;;;16.65;15.05;;;30.90;99.90;;;;;;5093406;28;20169;-63
2021/06/09 08:03:29;;;;;;;20.70;15.82;;;30.90;99.90;;;;;;5103553;28;20248;-64
2021/06/09 08:05:56;;;;;;;17.00;15.48;;;30.80;99.90;;;;;;5113095;28;20620;-63
2021/06/09 08:08:23;;;;;;;18.27;16.38;;;30.60;99.90;;;;;;5104521;28;20227;-63
2021/06/09 08:10:49;;;;;;;16.75;15.25;;;30.50;99.90;;;;;;5093308;28;20239;-63
2021/06/09 08:13:15;;;;;;;15.70;14.10;;;30.80;99.90;;;;;;5100387;28;20197;-63
2021/06/09 08:15:41;;;;;;;15.25;13.70;;;31.10;99.90;;;;;;5113561;28;20645;-63
2021/06/09 08:18:12;;;;;;;14.70;13.30;;;31.50;99.90;;;;;;5100531;28;20246;-64
2021/06/09 08:21:02;;;;;;;16.48;14.88;;;31.90;99.90;;;;;;5093204;28;20265;-64
2021/06/09 08:23:28;;;;;;;16.38;14.55;;;31.90;99.90;;;;;;5108096;28;20188;-64
2021/06/09 08:25:54;;;;;;;17.88;15.98;;;31.30;99.90;;;;;;5113732;28;20259;-63
2021/06/09 08:28:19;;;;;;;17.00;15.27;;;31.20;99.90;;;;;;5099927;28;20205;-64
2021/06/09 08:30:45;;;;;;;15.70;14.15;;;31.40;99.90;;;;;;5099568;28;20672;-64
2021/06/09 08:33:10;;;;;;;16.17;14.48;;;31.80;99.90;;;;;;5113407;28;20271;-63
2021/06/09 08:35:36;;;;;;;17.52;15.82;;;31.80;99.90;;;;;;5100242;28;20589;-63
2021/06/09 08:38:02;;;;;;;18.08;16.27;;;31.80;99.90;;;;;;5092873;28;20224;-63
2021/06/09 08:40:28;;;;;;;17.23;15.52;;;32.00;99.90;;;;;;5095506;28;20221;-63
2021/06/09 08:42:56;;;;;;;16.73;15.10;;;31.90;99.90;;;;;;5112415;28;20169;-64
2021/06/09 08:45:23;;;;;;;18.08;16.27;;;31.40;99.90;;;;;;5111197;28;20536;-64
2021/06/09 08:47:49;;;;;;;17.77;16.02;;;31.10;99.90;;;;;;5092640;28;20201;-63
2021/06/09 08:50:17;;;;;;;18.42;16.63;;;31.30;99.90;;;;;;5093539;28;20187;-64
2021/06/09 08:52:48;;;;;;;19.20;16.42;;;31.10;99.90;;;;;;5093790;28;20205;-63
2021/06/09 08:55:15;;;;;;;19.80;17.85;;;30.30;99.90;;;;;;5095512;28;20230;-64
2021/06/09 08:57:41;;;;;;;19.75;17.75;;;30.10;99.90;;;;;;5112665;28;20189;-64
2021/06/09 09:00:09;;;;;;;16.65;15.05;;;30.70;99.90;;;;;;5111343;28;20247;-64
2021/06/09 09:02:35;;;;;;;18.20;15.85;;;31.30;99.90;;;;;;5092430;28;20166;-64
2021/06/09 09:05:01;;;;;;;18.10;16.30;;;32.20;99.90;;;;;;5092542;28;20193;-64
2021/06/09 09:07:28;;;;;;;18.08;16.38;;;32.20;99.90;;;;;;5110563;28;20220;-64
2021/06/09 09:09:57;;;;;;;19.08;17.15;;;32.10;99.90;;;;;;5112453;28;20265;-64
2021/06/09 09:12:23;;;;;;;18.70;16.90;;;32.10;99.90;;;;;;5092978;28;20528;-64
2021/06/09 09:14:49;;;;;;;17.20;15.45;;;32.40;99.90;;;;;;5092142;28;20169;-64
2021/06/09 09:17:15;;;;;;;15.73;14.25;;;32.60;99.90;;;;;;5092191;28;20629;-66
2021/06/09 09:19:43;;;;;;;17.45;15.75;;;32.20;99.90;;;;;;5102772;28;20233;-64
2021/06/09 09:22:16;;;;;;;16.02;14.35;;;31.80;99.90;;;;;;5093039;28;20178;-64
2021/06/09 09:24:45;;;;;;;16.58;14.73;;;31.90;99.90;;;;;;5102486;28;20192;-63
2021/06/09 09:27:16;;;;;;;17.23;15.52;;;31.90;99.90;;;;;;5112431;28;20200;-64
2021/06/09 09:29:59;;;;;;;16.33;14.10;;;32.30;99.90;;;;;;5101829;28;20181;-64
2021/06/09 09:32:25;;;;;;;17.30;14.45;;;33.00;99.90;;;;;;5091831;28;20169;-64
2021/06/09 09:34:51;;;;;;;13.73;12.27;;;33.80;99.90;;;;;;5102469;28;20169;-64
2021/06/09 09:37:27;;;;;;;16.70;15.10;;;33.40;99.90;;;;;;5112087;28;20212;-63
2021/06/09 09:40:05;;;;;;;17.05;15.02;;;31.50;99.90;;;;;;5101414;28;20212;-64
2021/06/09 09:42:35;;;;;;;16.75;15.15;;;30.40;99.90;;;;;;5090571;28;20173;-63
2021/06/09 09:45:22;;;;;;;17.38;14.68;;;30.10;99.90;;;;;;5098692;28;20669;-64
2021/06/09 09:48:18;;;;;;;15.88;14.00;;;30.20;99.90;;;;;;5111730;28;20223;-64
2021/06/09 09:50:44;;;;;;;15.27;13.75;;;31.00;99.90;;;;;;5088178;28;20220;-64
2021/06/09 09:53:20;;;;;;;15.82;14.23;;;31.90;99.90;;;;;;5091316;28;20185;-64
2021/06/09 09:56:03;;;;;;;14.80;13.10;;;32.10;99.90;;;;;;5098380;28;20177;-64
2021/06/09 09:58:30;;;;;;;14.55;13.05;;;32.80;99.90;;;;;;5100921;28;20201;-64
2021/06/09 10:01:20;;;;;;;16.40;14.70;;;33.10;99.90;;;;;;5093363;28;20173;-64
2021/06/09 10:03:48;;;;;;;18.05;15.43;;;32.60;99.90;;;;;;5090257;28;20196;-64
2021/06/09 10:06:31;;;;;;;17.63;15.82;;;32.40;99.90;;;;;;5092779;28;20181;-64
2021/06/09 10:09:05;;;;;;;14.20;12.90;;;31.50;99.90;;;;;;5112150;28;20173;-64
2021/06/09 10:11:31;;;;;;;16.13;14.43;;;31.40;99.90;;;;;;5111489;28;20798;-64
2021/06/09 10:13:57;;;;;;;13.80;12.40;;;31.50;99.90;;;;;;5111956;28;20259;-64
2021/06/09 10:16:25;;;;;;;15.43;13.88;;;31.80;99.90;;;;;;5111821;28;20169;-64
2021/06/09 10:19:00;;;;;;;11.68;10.68;;;32.10;99.90;;;;;;5111034;28;20248;-64
2021/06/09 10:21:26;;;;;;;13.50;12.25;;;32.70;99.90;;;;;;5111528;28;20169;-64
2021/06/09 10:23:58;;;;;;;14.23;12.88;;;33.50;99.90;;;;;;5111771;28;20259;-64
2021/06/09 10:26:24;;;;;;;14.18;12.85;;;34.00;99.90;;;;;;5111652;28;20173;-64
2021/06/09 10:29:12;;;;;;;13.85;12.45;;;34.40;99.90;;;;;;5113666;28;20161;-64
2021/06/09 10:31:41;;;;;;;13.55;12.18;;;34.20;99.90;;;;;;5115325;28;20172;-64
2021/06/09 10:34:07;;;;;;;15.77;14.27;;;34.00;99.90;;;;;;5115780;28;20257;-64
2021/06/09 10:36:37;;;;;;;14.55;13.10;;;32.20;99.90;;;;;;5115593;28;20173;-63
2021/06/09 10:39:04;;;;;;;13.98;12.65;;;30.60;99.90;;;;;;5193239;22;20286;-64
2021/06/09 10:41:30;;;;;;;12.55;11.35;;;30.30;99.90;;;;;;5115636;28;20197;-65
2021/06/09 10:43:57;;;;;;;12.90;11.55;;;30.20;99.90;;;;;;5105006;28;20180;-65
2021/06/09 10:46:25;;;;;;;12.20;11.10;;;30.70;99.90;;;;;;5094932;28;20185;-64
2021/06/09 10:48:55;;;;;;;11.65;10.57;;;31.70;99.90;;;;;;5095097;28;20228;-64
2021/06/09 10:51:22;;;;;;;11.90;10.85;;;32.70;99.90;;;;;;5093996;28;20228;-64
2021/06/09 10:53:49;;;;;;;10.68;9.73;;;34.00;99.90;;;;;;5094873;28;20577;-65
2021/06/09 10:56:15;;;;;;;10.93;9.93;;;34.80;99.90;;;;;;5094865;28;20169;-63
2021/06/09 10:58:42;;;;;;;8.27;7.57;;;35.20;99.90;;;;;;5094730;28;20204;-64
2021/06/09 11:01:07;;;;;;;11.00;10.02;;;34.50;99.90;;;;;;5093048;28;20314;-65
2021/06/09 11:03:37;;;;;;;11.95;10.85;;;33.10;99.90;;;;;;5094253;28;20236;-64
2021/06/09 11:06:04;;;;;;;11.13;10.13;;;33.00;99.90;;;;;;5094057;28;20242;-64
2021/06/09 11:08:30;;;;;;;10.52;9.65;;;33.30;99.90;;;;;;5094484;28;20569;-64
2021/06/09 11:10:57;;;;;;;8.90;8.15;;;33.80;99.90;;;;;;5093857;28;20178;-63
2021/06/09 11:13:29;;;;;;;8.10;7.40;;;33.50;99.90;;;;;;5094472;28;20276;-63
2021/06/09 11:16:05;;;;;;;8.43;7.63;;;33.20;99.90;;;;;;5091824;28;20178;-65
2021/06/09 11:18:42;;;;;;;9.48;7.30;;;33.40;99.90;;;;;;5093631;28;20574;-64
2021/06/09 11:21:09;;;;;;;7.65;7.05;;;33.90;99.90;;;;;;5094277;28;20177;-64
2021/06/09 11:23:38;;;;;;;9.30;7.22;;;33.90;99.90;;;;;;5094381;28;20508;-64
2021/06/09 11:26:05;;;;;;;7.82;7.22;;;33.80;99.90;;;;;;5094237;28;20638;-63
2021/06/09 11:28:34;;;;;;;8.48;7.88;;;33.40;99.90;;;;;;5094356;28;20284;-64
2021/06/09 11:31:20;;;;;;;7.75;6.95;;;33.80;99.90;;;;;;5093730;28;20205;-64
2021/06/09 11:33:52;;;;;;;9.30;8.50;;;34.80;99.90;;;;;;5094345;28;20233;-65
2021/06/09 11:36:18;;;;;;;9.45;8.65;;;35.50;99.90;;;;;;5093949;28;20519;-65
2021/06/09 11:38:50;;;;;;;10.88;9.93;;;35.40;99.90;;;;;;5094112;28;20254;-64
2021/06/09 11:41:42;;;;;;;10.43;9.50;;;35.60;99.90;;;;;;5094060;28;20184;-65
2021/06/09 11:44:28;;;;;;;12.20;11.00;;;35.70;99.90;;;;;;5088951;28;20198;-64
2021/06/09 11:47:27;;;;;;;10.40;9.43;;;35.90;99.90;;;;;;5084008;28;20654;-65
2021/06/09 11:50:30;;;;;;;11.02;9.95;;;35.60;99.90;;;;;;5093475;28;20165;-64
2021/06/09 11:52:57;;;;;;;11.13;9.98;;;35.60;99.90;;;;;;5093902;28;20204;-65
2021/06/09 11:55:25;;;;;;;11.50;10.18;;;34.80;99.90;;;;;;5093667;28;20169;-65
2021/06/09 11:58:11;;;;;;;10.65;9.75;;;34.30;99.90;;;;;;5093562;28;20197;-64
2021/06/09 12:01:04;;;;;;;10.93;10.00;;;34.10;99.90;;;;;;5093254;28;20165;-64
2021/06/09 12:03:30;;;;;;;9.77;8.98;;;34.10;99.90;;;;;;5093816;28;20646;-65
2021/06/09 12:06:18;;;;;;;10.85;9.95;;;33.60;99.90;;;;;;5092661;28;20310;-64
2021/06/09 12:08:46;;;;;;;12.65;10.77;;;33.90;99.90;;;;;;5093748;28;20265;-65
2021/06/09 12:11:12;;;;;;;12.07;10.98;;;34.30;99.90;;;;;;5093140;28;20311;-65
2021/06/09 12:13:37;;;;;;;11.40;10.40;;;34.70;99.90;;;;;;5093458;28;20280;-64
2021/06/09 12:16:20;;;;;;;9.90;9.00;;;34.80;99.90;;;;;;5093250;28;20169;-63
2021/06/09 12:18:47;;;;;;;10.60;9.70;;;34.80;99.90;;;;;;5093140;28;20197;-65
2021/06/09 12:21:17;;;;;;;11.52;10.52;;;34.30;99.90;;;;;;5090491;28;20220;-64
2021/06/09 12:23:57;;;;;;;11.10;10.10;;;33.80;99.90;;;;;;5093128;28;20570;-64
2021/06/09 12:26:22;;;;;;;11.52;10.52;;;34.10;99.90;;;;;;5092937;28;20553;-65
2021/06/09 12:29:00;;;;;;;10.30;9.45;;;34.50;99.90;;;;;;5093250;28;20193;-65
2021/06/09 12:31:26;;;;;;;12.02;10.90;;;34.60;99.90;;;;;;5092506;28;20242;-64
2021/06/09 12:33:52;;;;;;;10.02;9.20;;;34.50;99.90;;;;;;5092983;28;20669;-64
2021/06/09 12:36:18;;;;;;;9.57;8.73;;;34.50;99.90;;;;;;5092839;28;20177;-64
2021/06/09 12:38:44;;;;;;;8.75;7.95;;;34.50;99.90;;;;;;5092830;28;20213;-64
2021/06/09 12:41:10;;;;;;;9.05;8.35;;;34.40;99.90;;;;;;5092766;28;20278;-63
2021/06/09 12:43:40;;;;;;;9.57;8.73;;;34.00;99.90;;;;;;5092751;28;20169;-64
2021/06/09 12:46:06;;;;;;;9.75;8.88;;;33.90;99.90;;;;;;5092613;28;20182;-64